sensor_id;sensor_type;location;lat;lon;timestamp;P1;durP1;ratioP1;P2;durP2;ratioP2
75297;SDS011;63896;45.990;18.688;2023-05-19T00:01:13;16.98;;;9.10;;
75297;SDS011;63896;45.990;18.688;2023-05-19T00:04:18;17.98;;;9.60;;
75297;SDS011;63896;45.990;18.688;2023-05-19T00:07:21;17.20;;;9.95;;
75297;SDS011;63896;45.990;18.688;2023-05-19T00:10:31;17.77;;;9.60;;
75297;SDS011;63896;45.990;18.688;2023-05-19T00:13:35;17.80;;;10.10;;
75297;SDS011;63896;45.990;18.688;2023-05-19T00:16:38;18.67;;;10.35;;
75297;SDS011;63896;45.990;18.688;2023-05-19T00:19:41;18.73;;;10.32;;
75297;SDS011;63896;45.990;18.688;2023-05-19T00:22:46;20.27;;;10.95;;
75297;SDS011;63896;45.990;18.688;2023-05-19T00:25:50;22.00;;;11.33;;
75297;SDS011;63896;45.990;18.688;2023-05-19T00:28:53;17.98;;;11.02;;
75297;SDS011;63896;45.990;18.688;2023-05-19T00:31:56;21.73;;;11.48;;
75297;SDS011;63896;45.990;18.688;2023-05-19T00:35:00;21.35;;;11.32;;
75297;SDS011;63896;45.990;18.688;2023-05-19T00:38:02;21.92;;;11.65;;
75297;SDS011;63896;45.990;18.688;2023-05-19T00:41:05;21.57;;;12.07;;
75297;SDS011;63896;45.990;18.688;2023-05-19T00:44:08;22.85;;;11.65;;
75297;SDS011;63896;45.990;18.688;2023-05-19T00:47:11;24.75;;;12.57;;
75297;SDS011;63896;45.990;18.688;2023-05-19T00:50:14;26.83;;;12.70;;
75297;SDS011;63896;45.990;18.688;2023-05-19T00:53:17;25.38;;;12.18;;
75297;SDS011;63896;45.990;18.688;2023-05-19T00:56:20;24.27;;;12.00;;
75297;SDS011;63896;45.990;18.688;2023-05-19T00:59:24;22.08;;;12.25;;
75297;SDS011;63896;45.990;18.688;2023-05-19T01:02:27;19.65;;;11.73;;
75297;SDS011;63896;45.990;18.688;2023-05-19T01:05:31;22.85;;;11.23;;
75297;SDS011;63896;45.990;18.688;2023-05-19T01:08:35;24.38;;;12.98;;
75297;SDS011;63896;45.990;18.688;2023-05-19T01:11:40;22.60;;;11.83;;
75297;SDS011;63896;45.990;18.688;2023-05-19T01:14:43;20.13;;;11.25;;
75297;SDS011;63896;45.990;18.688;2023-05-19T01:17:53;24.83;;;11.75;;
75297;SDS011;63896;45.990;18.688;2023-05-19T01:24:22;22.15;;;11.32;;
75297;SDS011;63896;45.990;18.688;2023-05-19T01:30:57;21.77;;;11.10;;
75297;SDS011;63896;45.990;18.688;2023-05-19T01:34:01;22.67;;;11.75;;
75297;SDS011;63896;45.990;18.688;2023-05-19T01:37:06;22.63;;;11.20;;
75297;SDS011;63896;45.990;18.688;2023-05-19T01:40:10;19.98;;;11.18;;
75297;SDS011;63896;45.990;18.688;2023-05-19T01:43:20;22.70;;;11.60;;
75297;SDS011;63896;45.990;18.688;2023-05-19T01:46:25;25.15;;;11.07;;
75297;SDS011;63896;45.990;18.688;2023-05-19T01:49:28;21.67;;;10.95;;
75297;SDS011;63896;45.990;18.688;2023-05-19T01:52:32;22.98;;;11.70;;
75297;SDS011;63896;45.990;18.688;2023-05-19T01:55:36;21.50;;;11.75;;
75297;SDS011;63896;45.990;18.688;2023-05-19T01:58:56;21.13;;;11.07;;
75297;SDS011;63896;45.990;18.688;2023-05-19T02:02:07;21.48;;;11.10;;
75297;SDS011;63896;45.990;18.688;2023-05-19T02:05:48;21.08;;;11.15;;
75297;SDS011;63896;45.990;18.688;2023-05-19T02:12:31;21.73;;;11.20;;
75297;SDS011;63896;45.990;18.688;2023-05-19T02:15:38;24.93;;;11.63;;
75297;SDS011;63896;45.990;18.688;2023-05-19T02:18:46;29.27;;;12.82;;
75297;SDS011;63896;45.990;18.688;2023-05-19T02:21:49;22.70;;;11.88;;
75297;SDS011;63896;45.990;18.688;2023-05-19T02:24:56;28.83;;;12.20;;
75297;SDS011;63896;45.990;18.688;2023-05-19T02:27:59;22.55;;;11.63;;
75297;SDS011;63896;45.990;18.688;2023-05-19T02:31:03;27.53;;;12.07;;
75297;SDS011;63896;45.990;18.688;2023-05-19T02:34:10;32.08;;;12.95;;
75297;SDS011;63896;45.990;18.688;2023-05-19T02:37:13;27.27;;;12.90;;
75297;SDS011;63896;45.990;18.688;2023-05-19T02:40:17;29.60;;;12.88;;
75297;SDS011;63896;45.990;18.688;2023-05-19T02:43:21;34.65;;;13.23;;
75297;SDS011;63896;45.990;18.688;2023-05-19T02:46:23;30.03;;;13.57;;
75297;SDS011;63896;45.990;18.688;2023-05-19T02:49:26;30.83;;;14.52;;
75297;SDS011;63896;45.990;18.688;2023-05-19T02:52:32;33.03;;;13.73;;
75297;SDS011;63896;45.990;18.688;2023-05-19T02:55:35;31.67;;;13.45;;
75297;SDS011;63896;45.990;18.688;2023-05-19T02:58:39;35.80;;;13.85;;
75297;SDS011;63896;45.990;18.688;2023-05-19T03:01:44;30.23;;;13.47;;
75297;SDS011;63896;45.990;18.688;2023-05-19T03:04:49;27.45;;;12.23;;
75297;SDS011;63896;45.990;18.688;2023-05-19T03:07:52;27.67;;;13.27;;
75297;SDS011;63896;45.990;18.688;2023-05-19T03:10:55;29.98;;;13.88;;
75297;SDS011;63896;45.990;18.688;2023-05-19T03:13:58;29.10;;;13.10;;
75297;SDS011;63896;45.990;18.688;2023-05-19T03:17:02;29.30;;;13.40;;
75297;SDS011;63896;45.990;18.688;2023-05-19T03:20:06;26.30;;;12.15;;
75297;SDS011;63896;45.990;18.688;2023-05-19T03:23:09;28.40;;;13.05;;
75297;SDS011;63896;45.990;18.688;2023-05-19T03:26:14;32.15;;;13.65;;
75297;SDS011;63896;45.990;18.688;2023-05-19T03:29:17;29.05;;;12.80;;
75297;SDS011;63896;45.990;18.688;2023-05-19T03:32:21;28.97;;;13.00;;
75297;SDS011;63896;45.990;18.688;2023-05-19T03:35:24;27.58;;;12.45;;
75297;SDS011;63896;45.990;18.688;2023-05-19T03:38:27;29.33;;;13.10;;
75297;SDS011;63896;45.990;18.688;2023-05-19T03:41:32;26.88;;;12.80;;
75297;SDS011;63896;45.990;18.688;2023-05-19T03:44:36;26.35;;;12.70;;
75297;SDS011;63896;45.990;18.688;2023-05-19T03:47:39;30.07;;;12.37;;
75297;SDS011;63896;45.990;18.688;2023-05-19T03:51:01;27.20;;;11.43;;
75297;SDS011;63896;45.990;18.688;2023-05-19T03:54:05;25.38;;;12.43;;
75297;SDS011;63896;45.990;18.688;2023-05-19T03:57:09;24.88;;;11.80;;
75297;SDS011;63896;45.990;18.688;2023-05-19T04:00:12;25.83;;;12.60;;
75297;SDS011;63896;45.990;18.688;2023-05-19T04:03:17;26.10;;;12.00;;
75297;SDS011;63896;45.990;18.688;2023-05-19T04:06:20;25.55;;;12.27;;
75297;SDS011;63896;45.990;18.688;2023-05-19T04:09:24;28.05;;;12.70;;
75297;SDS011;63896;45.990;18.688;2023-05-19T04:12:29;26.23;;;11.65;;
75297;SDS011;63896;45.990;18.688;2023-05-19T04:15:32;23.35;;;11.48;;
75297;SDS011;63896;45.990;18.688;2023-05-19T04:18:35;23.43;;;11.00;;
75297;SDS011;63896;45.990;18.688;2023-05-19T04:21:38;25.95;;;12.00;;
75297;SDS011;63896;45.990;18.688;2023-05-19T04:24:41;27.05;;;12.32;;
75297;SDS011;63896;45.990;18.688;2023-05-19T04:27:45;24.42;;;11.60;;
75297;SDS011;63896;45.990;18.688;2023-05-19T04:30:50;24.25;;;11.90;;
75297;SDS011;63896;45.990;18.688;2023-05-19T04:33:54;29.30;;;12.20;;
75297;SDS011;63896;45.990;18.688;2023-05-19T04:36:57;24.90;;;12.05;;
75297;SDS011;63896;45.990;18.688;2023-05-19T04:40:00;25.80;;;11.68;;
75297;SDS011;63896;45.990;18.688;2023-05-19T04:43:04;27.08;;;12.45;;
75297;SDS011;63896;45.990;18.688;2023-05-19T04:46:09;30.33;;;13.07;;
75297;SDS011;63896;45.990;18.688;2023-05-19T04:49:16;29.13;;;12.60;;
75297;SDS011;63896;45.990;18.688;2023-05-19T04:52:20;26.27;;;12.80;;
75297;SDS011;63896;45.990;18.688;2023-05-19T04:55:24;30.90;;;13.75;;
75297;SDS011;63896;45.990;18.688;2023-05-19T04:58:28;27.75;;;12.95;;
75297;SDS011;63896;45.990;18.688;2023-05-19T05:01:31;31.25;;;13.38;;
75297;SDS011;63896;45.990;18.688;2023-05-19T05:04:36;32.07;;;13.00;;
75297;SDS011;63896;45.990;18.688;2023-05-19T05:07:43;25.27;;;12.35;;
75297;SDS011;63896;45.990;18.688;2023-05-19T05:10:50;26.15;;;12.32;;
75297;SDS011;63896;45.990;18.688;2023-05-19T05:13:54;26.00;;;12.93;;
75297;SDS011;63896;45.990;18.688;2023-05-19T05:17:02;29.33;;;12.95;;
75297;SDS011;63896;45.990;18.688;2023-05-19T05:20:06;28.53;;;12.77;;
75297;SDS011;63896;45.990;18.688;2023-05-19T05:23:10;26.15;;;12.60;;
75297;SDS011;63896;45.990;18.688;2023-05-19T05:26:18;24.92;;;12.00;;
75297;SDS011;63896;45.990;18.688;2023-05-19T05:29:30;25.95;;;11.38;;
75297;SDS011;63896;45.990;18.688;2023-05-19T05:32:34;20.75;;;12.23;;
75297;SDS011;63896;45.990;18.688;2023-05-19T05:35:42;20.57;;;10.63;;
75297;SDS011;63896;45.990;18.688;2023-05-19T05:38:48;18.40;;;9.68;;
75297;SDS011;63896;45.990;18.688;2023-05-19T05:41:52;21.15;;;10.00;;
75297;SDS011;63896;45.990;18.688;2023-05-19T05:44:55;17.00;;;9.13;;
75297;SDS011;63896;45.990;18.688;2023-05-19T05:47:58;16.95;;;9.70;;
75297;SDS011;63896;45.990;18.688;2023-05-19T05:51:02;14.43;;;8.80;;
75297;SDS011;63896;45.990;18.688;2023-05-19T05:54:11;14.25;;;8.18;;
75297;SDS011;63896;45.990;18.688;2023-05-19T05:57:19;12.70;;;7.97;;
75297;SDS011;63896;45.990;18.688;2023-05-19T06:00:23;13.05;;;7.38;;
75297;SDS011;63896;45.990;18.688;2023-05-19T06:03:31;12.75;;;7.32;;
75297;SDS011;63896;45.990;18.688;2023-05-19T06:07:52;12.37;;;6.70;;
75297;SDS011;63896;45.990;18.688;2023-05-19T06:10:59;14.68;;;7.25;;
75297;SDS011;63896;45.990;18.688;2023-05-19T06:14:04;13.00;;;7.43;;
75297;SDS011;63896;45.990;18.688;2023-05-19T06:17:42;13.15;;;7.45;;
75297;SDS011;63896;45.990;18.688;2023-05-19T06:20:47;16.30;;;7.38;;
75297;SDS011;63896;45.990;18.688;2023-05-19T06:23:50;13.30;;;7.50;;
75297;SDS011;63896;45.990;18.688;2023-05-19T06:31:37;11.50;;;7.38;;
75297;SDS011;63896;45.990;18.688;2023-05-19T06:34:44;11.05;;;6.50;;
75297;SDS011;63896;45.990;18.688;2023-05-19T06:38:01;10.32;;;5.88;;
75297;SDS011;63896;45.990;18.688;2023-05-19T06:41:04;9.73;;;5.40;;
75297;SDS011;63896;45.990;18.688;2023-05-19T06:44:10;31.15;;;9.27;;
75297;SDS011;63896;45.990;18.688;2023-05-19T06:47:13;9.00;;;6.32;;
75297;SDS011;63896;45.990;18.688;2023-05-19T06:50:18;12.10;;;6.63;;
75297;SDS011;63896;45.990;18.688;2023-05-19T06:53:23;15.48;;;7.00;;
75297;SDS011;63896;45.990;18.688;2023-05-19T06:56:27;9.10;;;6.40;;
75297;SDS011;63896;45.990;18.688;2023-05-19T06:59:38;11.68;;;6.90;;
75297;SDS011;63896;45.990;18.688;2023-05-19T07:03:09;10.63;;;6.43;;
75297;SDS011;63896;45.990;18.688;2023-05-19T07:06:15;8.88;;;5.40;;
75297;SDS011;63896;45.990;18.688;2023-05-19T07:09:20;10.43;;;5.70;;
75297;SDS011;63896;45.990;18.688;2023-05-19T07:12:23;7.33;;;5.30;;
75297;SDS011;63896;45.990;18.688;2023-05-19T07:15:28;7.28;;;5.20;;
75297;SDS011;63896;45.990;18.688;2023-05-19T07:18:31;7.53;;;4.70;;
75297;SDS011;63896;45.990;18.688;2023-05-19T07:21:34;8.77;;;5.15;;
75297;SDS011;63896;45.990;18.688;2023-05-19T07:24:37;8.57;;;5.20;;
75297;SDS011;63896;45.990;18.688;2023-05-19T07:27:40;7.50;;;4.63;;
75297;SDS011;63896;45.990;18.688;2023-05-19T07:30:44;6.13;;;4.22;;
75297;SDS011;63896;45.990;18.688;2023-05-19T07:33:49;6.95;;;4.30;;
75297;SDS011;63896;45.990;18.688;2023-05-19T07:36:55;7.30;;;4.80;;
75297;SDS011;63896;45.990;18.688;2023-05-19T07:39:59;8.98;;;4.90;;
75297;SDS011;63896;45.990;18.688;2023-05-19T07:43:01;5.43;;;4.30;;
75297;SDS011;63896;45.990;18.688;2023-05-19T07:46:05;5.80;;;4.68;;
75297;SDS011;63896;45.990;18.688;2023-05-19T07:49:08;8.00;;;4.97;;
75297;SDS011;63896;45.990;18.688;2023-05-19T07:52:11;6.63;;;4.88;;
75297;SDS011;63896;45.990;18.688;2023-05-19T07:55:14;10.52;;;5.57;;
75297;SDS011;63896;45.990;18.688;2023-05-19T07:58:20;7.80;;;5.40;;
75297;SDS011;63896;45.990;18.688;2023-05-19T08:01:23;6.22;;;4.70;;
75297;SDS011;63896;45.990;18.688;2023-05-19T08:04:27;8.73;;;5.10;;
75297;SDS011;63896;45.990;18.688;2023-05-19T08:07:37;8.40;;;4.20;;
75297;SDS011;63896;45.990;18.688;2023-05-19T08:10:40;5.97;;;4.47;;
75297;SDS011;63896;45.990;18.688;2023-05-19T08:13:43;6.70;;;4.40;;
75297;SDS011;63896;45.990;18.688;2023-05-19T08:16:49;5.93;;;4.40;;
75297;SDS011;63896;45.990;18.688;2023-05-19T08:19:52;5.68;;;4.22;;
75297;SDS011;63896;45.990;18.688;2023-05-19T08:23:07;6.53;;;3.60;;
75297;SDS011;63896;45.990;18.688;2023-05-19T08:26:12;10.85;;;4.05;;
75297;SDS011;63896;45.990;18.688;2023-05-19T08:29:15;3.90;;;3.50;;
75297;SDS011;63896;45.990;18.688;2023-05-19T08:32:18;3.35;;;3.05;;
75297;SDS011;63896;45.990;18.688;2023-05-19T08:35:21;6.68;;;3.60;;
75297;SDS011;63896;45.990;18.688;2023-05-19T08:38:24;5.38;;;3.40;;
75297;SDS011;63896;45.990;18.688;2023-05-19T08:41:27;12.00;;;3.30;;
75297;SDS011;63896;45.990;18.688;2023-05-19T08:44:30;5.07;;;3.27;;
75297;SDS011;63896;45.990;18.688;2023-05-19T08:47:33;5.25;;;3.13;;
75297;SDS011;63896;45.990;18.688;2023-05-19T08:50:38;6.05;;;2.63;;
75297;SDS011;63896;45.990;18.688;2023-05-19T08:53:45;3.70;;;2.42;;
75297;SDS011;63896;45.990;18.688;2023-05-19T08:56:52;4.30;;;2.33;;
75297;SDS011;63896;45.990;18.688;2023-05-19T08:59:56;5.93;;;2.40;;
75297;SDS011;63896;45.990;18.688;2023-05-19T09:03:03;4.20;;;2.03;;
75297;SDS011;63896;45.990;18.688;2023-05-19T09:06:13;3.35;;;2.25;;
75297;SDS011;63896;45.990;18.688;2023-05-19T09:09:16;3.20;;;2.40;;
75297;SDS011;63896;45.990;18.688;2023-05-19T09:12:22;4.57;;;2.85;;
75297;SDS011;63896;45.990;18.688;2023-05-19T09:15:27;5.77;;;2.27;;
75297;SDS011;63896;45.990;18.688;2023-05-19T09:18:54;8.00;;;2.60;;
75297;SDS011;63896;45.990;18.688;2023-05-19T09:21:58;6.55;;;2.88;;
75297;SDS011;63896;45.990;18.688;2023-05-19T09:25:16;2.83;;;2.47;;
75297;SDS011;63896;45.990;18.688;2023-05-19T09:28:25;3.38;;;2.72;;
75297;SDS011;63896;45.990;18.688;2023-05-19T09:31:31;3.80;;;3.10;;
75297;SDS011;63896;45.990;18.688;2023-05-19T09:34:41;4.70;;;3.00;;
75297;SDS011;63896;45.990;18.688;2023-05-19T09:37:44;5.28;;;3.03;;
75297;SDS011;63896;45.990;18.688;2023-05-19T09:41:00;4.00;;;2.22;;
75297;SDS011;63896;45.990;18.688;2023-05-19T09:44:03;4.82;;;2.58;;
75297;SDS011;63896;45.990;18.688;2023-05-19T09:47:08;4.40;;;2.27;;
75297;SDS011;63896;45.990;18.688;2023-05-19T09:50:15;3.75;;;2.10;;
75297;SDS011;63896;45.990;18.688;2023-05-19T09:53:18;3.55;;;2.40;;
75297;SDS011;63896;45.990;18.688;2023-05-19T09:56:23;10.60;;;2.33;;
75297;SDS011;63896;45.990;18.688;2023-05-19T09:59:33;2.95;;;2.17;;
75297;SDS011;63896;45.990;18.688;2023-05-19T10:02:43;4.60;;;2.80;;
75297;SDS011;63896;45.990;18.688;2023-05-19T10:05:47;3.25;;;2.63;;
75297;SDS011;63896;45.990;18.688;2023-05-19T10:12:27;3.83;;;2.90;;
75297;SDS011;63896;45.990;18.688;2023-05-19T10:15:35;4.80;;;2.58;;
75297;SDS011;63896;45.990;18.688;2023-05-19T10:19:00;3.70;;;2.70;;
75297;SDS011;63896;45.990;18.688;2023-05-19T10:22:05;4.85;;;2.50;;
75297;SDS011;63896;45.990;18.688;2023-05-19T10:25:11;3.22;;;2.80;;
75297;SDS011;63896;45.990;18.688;2023-05-19T10:28:19;4.97;;;2.40;;
75297;SDS011;63896;45.990;18.688;2023-05-19T10:31:27;4.50;;;2.33;;
75297;SDS011;63896;45.990;18.688;2023-05-19T10:41:23;4.22;;;2.80;;
75297;SDS011;63896;45.990;18.688;2023-05-19T10:47:49;3.03;;;2.00;;
75297;SDS011;63896;45.990;18.688;2023-05-19T10:50:53;4.17;;;2.20;;
75297;SDS011;63896;45.990;18.688;2023-05-19T10:53:57;3.15;;;2.22;;
75297;SDS011;63896;45.990;18.688;2023-05-19T10:57:04;5.03;;;2.53;;
75297;SDS011;63896;45.990;18.688;2023-05-19T11:00:25;4.50;;;2.22;;
75297;SDS011;63896;45.990;18.688;2023-05-19T11:03:29;3.53;;;2.72;;
75297;SDS011;63896;45.990;18.688;2023-05-19T11:06:49;3.20;;;2.73;;
75297;SDS011;63896;45.990;18.688;2023-05-19T11:18:32;4.68;;;2.60;;
75297;SDS011;63896;45.990;18.688;2023-05-19T11:21:46;3.55;;;2.50;;
75297;SDS011;63896;45.990;18.688;2023-05-19T11:24:54;5.80;;;2.57;;
75297;SDS011;63896;45.990;18.688;2023-05-19T11:27:57;6.80;;;2.55;;
75297;SDS011;63896;45.990;18.688;2023-05-19T11:31:00;5.28;;;2.30;;
75297;SDS011;63896;45.990;18.688;2023-05-19T11:34:05;6.20;;;2.40;;
75297;SDS011;63896;45.990;18.688;2023-05-19T11:37:11;12.65;;;2.90;;
75297;SDS011;63896;45.990;18.688;2023-05-19T11:40:14;4.43;;;2.50;;
75297;SDS011;63896;45.990;18.688;2023-05-19T11:43:17;3.42;;;2.20;;
75297;SDS011;63896;45.990;18.688;2023-05-19T11:46:20;7.97;;;2.70;;
75297;SDS011;63896;45.990;18.688;2023-05-19T11:49:27;5.45;;;2.38;;
75297;SDS011;63896;45.990;18.688;2023-05-19T11:52:30;5.80;;;2.40;;
75297;SDS011;63896;45.990;18.688;2023-05-19T11:55:33;6.93;;;2.87;;
75297;SDS011;63896;45.990;18.688;2023-05-19T11:58:36;6.03;;;2.40;;
75297;SDS011;63896;45.990;18.688;2023-05-19T12:01:39;5.13;;;2.40;;
75297;SDS011;63896;45.990;18.688;2023-05-19T12:04:42;2.88;;;2.58;;
75297;SDS011;63896;45.990;18.688;2023-05-19T12:07:45;8.82;;;2.85;;
75297;SDS011;63896;45.990;18.688;2023-05-19T12:10:50;4.57;;;2.40;;
75297;SDS011;63896;45.990;18.688;2023-05-19T12:13:59;5.78;;;2.67;;
75297;SDS011;63896;45.990;18.688;2023-05-19T12:17:12;4.10;;;2.45;;
75297;SDS011;63896;45.990;18.688;2023-05-19T12:20:18;3.33;;;2.30;;
75297;SDS011;63896;45.990;18.688;2023-05-19T12:23:22;2.95;;;2.45;;
75297;SDS011;63896;45.990;18.688;2023-05-19T12:26:26;4.47;;;2.63;;
75297;SDS011;63896;45.990;18.688;2023-05-19T12:29:30;5.70;;;2.80;;
75297;SDS011;63896;45.990;18.688;2023-05-19T12:32:33;2.50;;;2.30;;
75297;SDS011;63896;45.990;18.688;2023-05-19T12:35:39;5.78;;;2.10;;
75297;SDS011;63896;45.990;18.688;2023-05-19T12:38:43;6.25;;;3.00;;
75297;SDS011;63896;45.990;18.688;2023-05-19T12:41:49;3.20;;;2.40;;
75297;SDS011;63896;45.990;18.688;2023-05-19T12:44:52;4.28;;;2.80;;
75297;SDS011;63896;45.990;18.688;2023-05-19T12:47:56;6.70;;;2.78;;
75297;SDS011;63896;45.990;18.688;2023-05-19T12:50:59;7.00;;;2.70;;
75297;SDS011;63896;45.990;18.688;2023-05-19T12:54:02;6.32;;;2.78;;
75297;SDS011;63896;45.990;18.688;2023-05-19T12:57:11;5.33;;;2.87;;
75297;SDS011;63896;45.990;18.688;2023-05-19T13:08:25;5.55;;;3.17;;
75297;SDS011;63896;45.990;18.688;2023-05-19T13:11:29;4.32;;;2.70;;
75297;SDS011;63896;45.990;18.688;2023-05-19T13:14:32;4.77;;;2.70;;
75297;SDS011;63896;45.990;18.688;2023-05-19T13:17:34;6.57;;;2.80;;
75297;SDS011;63896;45.990;18.688;2023-05-19T13:20:38;7.47;;;2.72;;
75297;SDS011;63896;45.990;18.688;2023-05-19T13:23:43;3.45;;;2.63;;
75297;SDS011;63896;45.990;18.688;2023-05-19T13:26:48;4.68;;;2.72;;
75297;SDS011;63896;45.990;18.688;2023-05-19T13:29:51;5.17;;;2.80;;
75297;SDS011;63896;45.990;18.688;2023-05-19T13:32:54;5.03;;;3.20;;
75297;SDS011;63896;45.990;18.688;2023-05-19T13:35:57;4.22;;;2.88;;
75297;SDS011;63896;45.990;18.688;2023-05-19T13:39:03;4.20;;;2.75;;
75297;SDS011;63896;45.990;18.688;2023-05-19T13:42:07;4.38;;;3.20;;
75297;SDS011;63896;45.990;18.688;2023-05-19T13:46:14;4.63;;;3.03;;
75297;SDS011;63896;45.990;18.688;2023-05-19T13:49:17;3.53;;;2.67;;
75297;SDS011;63896;45.990;18.688;2023-05-19T13:52:20;3.53;;;2.45;;
75297;SDS011;63896;45.990;18.688;2023-05-19T13:55:25;3.72;;;2.95;;
75297;SDS011;63896;45.990;18.688;2023-05-19T13:58:28;6.72;;;3.13;;
75297;SDS011;63896;45.990;18.688;2023-05-19T14:01:34;4.63;;;3.10;;
75297;SDS011;63896;45.990;18.688;2023-05-19T14:04:37;7.07;;;3.00;;
75297;SDS011;63896;45.990;18.688;2023-05-19T14:07:40;3.72;;;3.08;;
75297;SDS011;63896;45.990;18.688;2023-05-19T14:10:46;6.07;;;3.15;;
75297;SDS011;63896;45.990;18.688;2023-05-19T14:13:50;5.55;;;2.80;;
75297;SDS011;63896;45.990;18.688;2023-05-19T14:16:54;7.03;;;2.83;;
75297;SDS011;63896;45.990;18.688;2023-05-19T14:19:58;4.18;;;3.15;;
75297;SDS011;63896;45.990;18.688;2023-05-19T14:23:01;4.43;;;3.28;;
75297;SDS011;63896;45.990;18.688;2023-05-19T14:26:04;6.93;;;3.25;;
75297;SDS011;63896;45.990;18.688;2023-05-19T14:29:07;4.13;;;3.25;;
75297;SDS011;63896;45.990;18.688;2023-05-19T14:32:10;3.77;;;3.40;;
75297;SDS011;63896;45.990;18.688;2023-05-19T14:35:13;7.32;;;3.17;;
75297;SDS011;63896;45.990;18.688;2023-05-19T14:38:16;5.47;;;3.30;;
75297;SDS011;63896;45.990;18.688;2023-05-19T14:41:18;7.13;;;3.17;;
75297;SDS011;63896;45.990;18.688;2023-05-19T14:44:22;3.45;;;3.15;;
75297;SDS011;63896;45.990;18.688;2023-05-19T14:47:25;5.43;;;3.10;;
75297;SDS011;63896;45.990;18.688;2023-05-19T14:50:28;6.95;;;3.03;;
75297;SDS011;63896;45.990;18.688;2023-05-19T14:53:32;3.25;;;2.90;;
75297;SDS011;63896;45.990;18.688;2023-05-19T14:56:34;5.65;;;2.97;;
75297;SDS011;63896;45.990;18.688;2023-05-19T14:59:37;5.57;;;2.70;;
75297;SDS011;63896;45.990;18.688;2023-05-19T15:02:40;9.60;;;2.70;;
75297;SDS011;63896;45.990;18.688;2023-05-19T15:05:43;3.55;;;2.65;;
75297;SDS011;63896;45.990;18.688;2023-05-19T15:08:47;4.40;;;3.00;;
75297;SDS011;63896;45.990;18.688;2023-05-19T15:11:50;6.13;;;2.92;;
75297;SDS011;63896;45.990;18.688;2023-05-19T15:14:53;5.57;;;3.80;;
75297;SDS011;63896;45.990;18.688;2023-05-19T15:17:55;8.27;;;3.53;;
75297;SDS011;63896;45.990;18.688;2023-05-19T15:20:58;8.02;;;3.30;;
75297;SDS011;63896;45.990;18.688;2023-05-19T15:24:01;7.93;;;3.10;;
75297;SDS011;63896;45.990;18.688;2023-05-19T15:27:04;4.47;;;3.17;;
75297;SDS011;63896;45.990;18.688;2023-05-19T15:30:07;4.38;;;3.33;;
75297;SDS011;63896;45.990;18.688;2023-05-19T15:33:11;5.43;;;3.20;;
75297;SDS011;63896;45.990;18.688;2023-05-19T15:36:14;5.30;;;2.92;;
75297;SDS011;63896;45.990;18.688;2023-05-19T15:39:18;3.92;;;3.05;;
75297;SDS011;63896;45.990;18.688;2023-05-19T15:42:20;6.25;;;3.30;;
75297;SDS011;63896;45.990;18.688;2023-05-19T15:45:23;5.13;;;3.40;;
75297;SDS011;63896;45.990;18.688;2023-05-19T15:48:26;6.33;;;3.40;;
75297;SDS011;63896;45.990;18.688;2023-05-19T15:51:30;3.58;;;3.10;;
75297;SDS011;63896;45.990;18.688;2023-05-19T15:54:33;5.80;;;3.58;;
75297;SDS011;63896;45.990;18.688;2023-05-19T15:57:36;4.68;;;2.90;;
75297;SDS011;63896;45.990;18.688;2023-05-19T16:00:38;5.72;;;3.42;;
75297;SDS011;63896;45.990;18.688;2023-05-19T16:03:41;6.20;;;3.77;;
75297;SDS011;63896;45.990;18.688;2023-05-19T16:06:45;8.25;;;3.80;;
75297;SDS011;63896;45.990;18.688;2023-05-19T16:09:48;6.63;;;4.10;;
75297;SDS011;63896;45.990;18.688;2023-05-19T16:12:51;7.57;;;4.10;;
75297;SDS011;63896;45.990;18.688;2023-05-19T16:15:54;5.85;;;3.80;;
75297;SDS011;63896;45.990;18.688;2023-05-19T16:18:57;5.93;;;4.07;;
75297;SDS011;63896;45.990;18.688;2023-05-19T16:22:00;7.00;;;4.40;;
75297;SDS011;63896;45.990;18.688;2023-05-19T16:25:03;10.02;;;5.45;;
75297;SDS011;63896;45.990;18.688;2023-05-19T16:28:06;8.25;;;4.05;;
75297;SDS011;63896;45.990;18.688;2023-05-19T16:31:09;5.55;;;4.25;;
75297;SDS011;63896;45.990;18.688;2023-05-19T16:34:12;5.27;;;3.60;;
75297;SDS011;63896;45.990;18.688;2023-05-19T16:37:18;7.45;;;4.05;;
75297;SDS011;63896;45.990;18.688;2023-05-19T16:40:20;10.77;;;3.92;;
75297;SDS011;63896;45.990;18.688;2023-05-19T16:43:23;6.15;;;4.25;;
75297;SDS011;63896;45.990;18.688;2023-05-19T16:46:27;7.43;;;4.60;;
75297;SDS011;63896;45.990;18.688;2023-05-19T16:49:32;9.07;;;4.07;;
75297;SDS011;63896;45.990;18.688;2023-05-19T16:52:35;4.25;;;3.75;;
75297;SDS011;63896;45.990;18.688;2023-05-19T16:55:38;4.15;;;3.72;;
75297;SDS011;63896;45.990;18.688;2023-05-19T16:58:41;6.70;;;4.35;;
75297;SDS011;63896;45.990;18.688;2023-05-19T17:01:44;5.43;;;4.10;;
75297;SDS011;63896;45.990;18.688;2023-05-19T17:04:47;4.30;;;3.90;;
75297;SDS011;63896;45.990;18.688;2023-05-19T17:07:50;8.27;;;4.40;;
75297;SDS011;63896;45.990;18.688;2023-05-19T17:10:53;7.10;;;4.32;;
75297;SDS011;63896;45.990;18.688;2023-05-19T17:13:55;9.02;;;4.60;;
75297;SDS011;63896;45.990;18.688;2023-05-19T17:16:58;7.72;;;4.43;;
75297;SDS011;63896;45.990;18.688;2023-05-19T17:20:01;5.23;;;4.40;;
75297;SDS011;63896;45.990;18.688;2023-05-19T17:23:06;8.05;;;5.38;;
75297;SDS011;63896;45.990;18.688;2023-05-19T17:26:09;8.85;;;6.20;;
75297;SDS011;63896;45.990;18.688;2023-05-19T17:29:12;10.27;;;5.60;;
75297;SDS011;63896;45.990;18.688;2023-05-19T17:32:15;9.32;;;5.35;;
75297;SDS011;63896;45.990;18.688;2023-05-19T17:35:18;7.03;;;4.50;;
75297;SDS011;63896;45.990;18.688;2023-05-19T17:38:21;6.13;;;4.55;;
75297;SDS011;63896;45.990;18.688;2023-05-19T17:41:24;8.48;;;4.80;;
75297;SDS011;63896;45.990;18.688;2023-05-19T17:44:27;9.70;;;4.57;;
75297;SDS011;63896;45.990;18.688;2023-05-19T17:47:30;6.85;;;4.75;;
75297;SDS011;63896;45.990;18.688;2023-05-19T17:50:33;9.40;;;4.53;;
75297;SDS011;63896;45.990;18.688;2023-05-19T17:53:36;8.98;;;4.60;;
75297;SDS011;63896;45.990;18.688;2023-05-19T17:56:40;6.20;;;4.55;;
75297;SDS011;63896;45.990;18.688;2023-05-19T17:59:45;10.40;;;5.00;;
75297;SDS011;63896;45.990;18.688;2023-05-19T18:02:48;11.75;;;6.07;;
75297;SDS011;63896;45.990;18.688;2023-05-19T18:05:52;11.00;;;6.30;;
75297;SDS011;63896;45.990;18.688;2023-05-19T18:08:55;12.30;;;7.15;;
75297;SDS011;63896;45.990;18.688;2023-05-19T18:12:00;9.80;;;6.53;;
75297;SDS011;63896;45.990;18.688;2023-05-19T18:15:03;10.38;;;5.93;;
75297;SDS011;63896;45.990;18.688;2023-05-19T18:18:07;10.63;;;5.82;;
75297;SDS011;63896;45.990;18.688;2023-05-19T18:21:12;8.27;;;6.00;;
75297;SDS011;63896;45.990;18.688;2023-05-19T18:24:19;7.72;;;5.72;;
75297;SDS011;63896;45.990;18.688;2023-05-19T18:27:21;10.20;;;5.95;;
75297;SDS011;63896;45.990;18.688;2023-05-19T18:30:24;8.20;;;5.90;;
75297;SDS011;63896;45.990;18.688;2023-05-19T18:33:27;8.05;;;6.35;;
75297;SDS011;63896;45.990;18.688;2023-05-19T18:36:32;12.57;;;6.00;;
75297;SDS011;63896;45.990;18.688;2023-05-19T18:39:37;10.68;;;6.47;;
75297;SDS011;63896;45.990;18.688;2023-05-19T18:42:39;11.82;;;6.70;;
75297;SDS011;63896;45.990;18.688;2023-05-19T18:45:45;9.35;;;6.40;;
75297;SDS011;63896;45.990;18.688;2023-05-19T18:48:49;8.95;;;6.70;;
75297;SDS011;63896;45.990;18.688;2023-05-19T18:51:52;10.77;;;6.30;;
75297;SDS011;63896;45.990;18.688;2023-05-19T18:54:55;9.05;;;6.72;;